Time;durP1;ratioP1;P1;durP2;ratioP2;P2;SDS_P1;SDS_P2;PMS_P1;PMS_P2;Temp;Humidity;BMP_temperature;BMP_pressure;BME280_temperature;BME280_humidity;BME280_pressure;Samples;Min_cycle;Max_cycle;Signal;HPM_P1;HPM_P2
2023/12/05 00:01:57;;;;;;;6.37;5.20;;;5.30;99.90;;;;;;5043281;28;20206;-65
2023/12/05 00:04:23;;;;;;;6.60;5.40;;;5.40;99.90;;;;;;5046207;28;20197;-66
2023/12/05 00:06:50;;;;;;;6.70;5.57;;;5.60;99.90;;;;;;5049422;28;20601;-66
2023/12/05 00:09:16;;;;;;;7.30;5.80;;;5.50;99.90;;;;;;5042540;28;20218;-67
2023/12/05 00:11:43;;;;;;;6.87;5.73;;;5.60;99.90;;;;;;5042796;28;20198;-63
2023/12/05 00:14:11;;;;;;;7.00;5.80;;;5.50;99.90;;;;;;5044851;28;20214;-64
2023/12/05 00:16:38;;;;;;;8.33;6.00;;;5.40;99.90;;;;;;5045932;28;20206;-64
2023/12/05 00:19:04;;;;;;;7.00;4.97;;;5.40;99.90;;;;;;5044069;28;20198;-64
2023/12/05 00:21:31;;;;;;;6.63;5.20;;;5.50;99.90;;;;;;5042325;28;20210;-65
2023/12/05 00:23:58;;;;;;;7.57;5.43;;;5.50;99.90;;;;;;5043220;28;20206;-65
2023/12/05 00:26:24;;;;;;;7.37;5.70;;;5.50;99.90;;;;;;5045418;28;20209;-64
2023/12/05 00:28:51;;;;;;;7.73;5.60;;;5.30;99.90;;;;;;5045728;28;20224;-64
2023/12/05 00:31:19;;;;;;;6.23;4.83;;;5.20;99.90;;;;;;5041944;28;20217;-64
2023/12/05 00:33:47;;;;;;;9.00;5.33;;;5.30;99.90;;;;;;5041993;28;20210;-64
2023/12/05 00:36:14;;;;;;;7.17;5.70;;;5.40;99.90;;;;;;5044494;28;20209;-64
2023/12/05 00:38:40;;;;;;;5.53;4.63;;;5.40;99.90;;;;;;5045329;28;20202;-64
2023/12/05 00:41:07;;;;;;;6.80;4.43;;;5.50;99.90;;;;;;5043475;28;20230;-65
2023/12/05 00:43:34;;;;;;;6.50;4.70;;;5.60;99.90;;;;;;5041988;28;20218;-65
2023/12/05 00:46:01;;;;;;;6.40;5.07;;;5.60;99.90;;;;;;5042933;28;20276;-65
2023/12/05 00:48:29;;;;;;;6.10;4.57;;;5.50;99.90;;;;;;5044675;28;20228;-65
2023/12/05 00:50:56;;;;;;;6.07;4.60;;;5.50;99.90;;;;;;5044511;28;20597;-65
2023/12/05 00:53:22;;;;;;;5.00;4.43;;;5.40;99.90;;;;;;5041870;28;20198;-64
2023/12/05 00:55:49;;;;;;;6.17;4.80;;;5.50;99.90;;;;;;5041930;28;20219;-63
2023/12/05 00:58:16;;;;;;;7.17;5.03;;;5.40;99.90;;;;;;5044257;28;20198;-68
2023/12/05 01:00:42;;;;;;;5.93;4.10;;;5.40;99.90;;;;;;5044889;28;20221;-66
2023/12/05 01:03:09;;;;;;;6.17;4.70;;;5.50;99.90;;;;;;5041890;28;20236;-68
2023/12/05 01:05:37;;;;;;;5.70;4.63;;;5.40;99.90;;;;;;5041809;28;20203;-66
2023/12/05 01:08:04;;;;;;;6.20;4.27;;;5.40;99.90;;;;;;5042629;28;20515;-65
2023/12/05 01:10:31;;;;;;;5.30;4.10;;;5.50;99.90;;;;;;5044678;28;20675;-66
2023/12/05 01:12:58;;;;;;;4.50;3.30;;;5.50;99.90;;;;;;5044121;28;20667;-66
2023/12/05 01:15:24;;;;;;;3.73;2.40;;;5.70;99.90;;;;;;5041433;28;20641;-65
2023/12/05 01:17:52;;;;;;;3.50;2.10;;;5.70;99.90;;;;;;5041081;28;20202;-64
2023/12/05 01:20:19;;;;;;;3.00;2.23;;;5.90;99.90;;;;;;5044359;28;20221;-64
2023/12/05 01:22:47;;;;;;;2.83;2.30;;;6.00;99.90;;;;;;5044908;28;20216;-65
2023/12/05 01:25:14;;;;;;;3.27;2.50;;;6.20;99.90;;;;;;5041699;28;20209;-66
2023/12/05 01:27:40;;;;;;;2.90;2.20;;;6.40;99.90;;;;;;5041062;28;20218;-65
2023/12/05 01:30:07;;;;;;;2.73;2.17;;;6.40;99.90;;;;;;5042479;28;20276;-63
2023/12/05 01:32:34;;;;;;;2.40;2.20;;;6.40;99.90;;;;;;5044366;28;20202;-64
2023/12/05 01:35:01;;;;;;;2.90;2.23;;;6.30;99.90;;;;;;5043605;28;20205;-63
2023/12/05 01:37:28;;;;;;;4.13;2.70;;;6.30;99.90;;;;;;5040917;28;20210;-64
2023/12/05 01:39:56;;;;;;;2.50;2.03;;;6.30;99.90;;;;;;5041039;28;20226;-64
2023/12/05 01:42:22;;;;;;;2.63;2.10;;;6.30;99.90;;;;;;5044799;28;20215;-64
2023/12/05 01:44:49;;;;;;;2.47;2.27;;;6.20;99.90;;;;;;5044446;28;20201;-64
2023/12/05 01:47:17;;;;;;;2.43;2.17;;;6.20;99.90;;;;;;5041424;28;20260;-64
2023/12/05 01:49:46;;;;;;;2.80;2.20;;;6.20;99.90;;;;;;5040705;28;20226;-64
2023/12/05 01:52:13;;;;;;;2.90;1.80;;;6.20;99.90;;;;;;5043014;28;20609;-65
2023/12/05 01:54:40;;;;;;;3.03;2.23;;;6.30;99.90;;;;;;5044271;28;20220;-64
2023/12/05 01:57:09;;;;;;;2.70;2.03;;;6.20;99.90;;;;;;5042441;28;20209;-64
2023/12/05 01:59:35;;;;;;;3.00;2.30;;;6.30;99.90;;;;;;5040525;28;20238;-64
2023/12/05 02:02:02;;;;;;;2.63;1.80;;;6.30;99.90;;;;;;5041882;28;20569;-65
2023/12/05 02:04:30;;;;;;;2.07;1.87;;;6.40;99.90;;;;;;5045260;28;20201;-64
2023/12/05 02:06:57;;;;;;;2.73;2.03;;;6.40;99.90;;;;;;5044955;28;20208;-65
2023/12/05 02:09:24;;;;;;;2.47;1.80;;;6.40;99.90;;;;;;5041402;28;20614;-65
2023/12/05 02:11:51;;;;;;;3.23;2.20;;;6.50;99.90;;;;;;5041770;28;20206;-66
2023/12/05 02:14:19;;;;;;;1.53;1.43;;;6.60;99.90;;;;;;5044389;28;20209;-62
2023/12/05 02:16:53;;;;;;;2.27;1.73;;;6.60;99.90;;;;;;5045282;28;20232;-63
2023/12/05 02:19:40;;;;;;;1.87;1.60;;;6.70;99.90;;;;;;5041837;28;20209;-64
2023/12/05 02:22:17;;;;;;;1.67;1.57;;;6.80;99.90;;;;;;5044079;28;20288;-65
2023/12/05 02:24:53;;;;;;;2.60;1.80;;;6.90;99.90;;;;;;5046351;28;20236;-64
2023/12/05 02:27:30;;;;;;;1.83;1.60;;;6.90;99.90;;;;;;5042139;28;20546;-64
2023/12/05 02:29:57;;;;;;;2.13;1.50;;;6.90;99.90;;;;;;5041288;28;20275;-63
2023/12/05 02:32:23;;;;;;;2.27;1.93;;;6.90;99.90;;;;;;5044395;28;20522;-64
2023/12/05 02:34:50;;;;;;;2.37;1.80;;;6.90;99.90;;;;;;5044696;28;20216;-64
2023/12/05 02:37:25;;;;;;;1.90;1.67;;;6.80;99.90;;;;;;5042039;28;20238;-64
2023/12/05 02:40:00;;;;;;;2.10;1.80;;;6.90;99.90;;;;;;5040778;28;20222;-64
2023/12/05 02:42:28;;;;;;;2.37;1.67;;;6.90;99.90;;;;;;5044026;28;20580;-65
2023/12/05 02:44:58;;;;;;;1.83;1.60;;;7.00;99.90;;;;;;5043390;28;20202;-64
2023/12/05 02:47:29;;;;;;;1.70;1.40;;;6.90;99.90;;;;;;5043403;28;20630;-64
2023/12/05 02:49:56;;;;;;;1.40;1.23;;;6.80;99.90;;;;;;5043393;28;20236;-63
2023/12/05 02:52:23;;;;;;;1.90;1.50;;;6.70;99.90;;;;;;5039735;28;20285;-64
2023/12/05 02:54:50;;;;;;;1.67;1.50;;;6.60;99.90;;;;;;5039960;28;20211;-64
2023/12/05 02:57:17;;;;;;;1.93;1.70;;;6.60;99.90;;;;;;5042127;28;20272;-63
2023/12/05 02:59:43;;;;;;;1.83;1.70;;;6.50;99.90;;;;;;5043027;28;20222;-63
2023/12/05 03:02:11;;;;;;;1.60;1.50;;;6.40;99.90;;;;;;5041190;28;20209;-64
2023/12/05 03:04:38;;;;;;;2.00;1.77;;;6.30;99.90;;;;;;5039565;28;20205;-64
2023/12/05 03:07:05;;;;;;;1.83;1.70;;;6.20;99.90;;;;;;5040541;28;20217;-63
2023/12/05 03:09:31;;;;;;;2.53;1.77;;;6.20;99.90;;;;;;5042663;28;20229;-64
2023/12/05 03:11:58;;;;;;;1.60;1.50;;;6.20;99.90;;;;;;5042907;28;20263;-66
2023/12/05 03:14:24;;;;;;;2.13;1.80;;;6.20;99.90;;;;;;5042939;28;20220;-62
2023/12/05 03:16:51;;;;;;;2.67;1.80;;;6.20;99.90;;;;;;5042676;28;20220;-65
2023/12/05 03:19:19;;;;;;;1.60;1.50;;;6.20;99.90;;;;;;5039932;28;20201;-66
2023/12/05 03:21:46;;;;;;;2.27;1.90;;;6.30;99.90;;;;;;5039435;28;20206;-63
2023/12/05 03:24:13;;;;;;;2.73;2.00;;;6.30;99.90;;;;;;5040557;28;20241;-63
2023/12/05 03:26:40;;;;;;;2.10;1.90;;;6.40;99.90;;;;;;5042655;28;20609;-64
2023/12/05 03:29:06;;;;;;;2.60;1.97;;;6.60;99.90;;;;;;5041247;28;20675;-64
2023/12/05 03:31:35;;;;;;;2.63;2.10;;;6.80;99.90;;;;;;5039083;28;20583;-63
2023/12/05 03:34:02;;;;;;;2.33;1.90;;;6.90;99.90;;;;;;5039937;28;20221;-64
2023/12/05 03:36:30;;;;;;;2.10;1.80;;;7.00;99.90;;;;;;5043087;28;20678;-64
2023/12/05 03:38:57;;;;;;;1.80;1.67;;;7.10;99.90;;;;;;5042515;28;20303;-64
2023/12/05 03:41:24;;;;;;;2.73;1.63;;;7.10;99.90;;;;;;5038951;28;20684;-63
2023/12/05 03:43:50;;;;;;;1.47;1.33;;;7.30;99.90;;;;;;5039454;28;20675;-64
2023/12/05 03:46:17;;;;;;;1.47;1.30;;;7.30;99.90;;;;;;5041736;28;20679;-62
2023/12/05 03:48:44;;;;;;;2.10;1.67;;;7.30;99.90;;;;;;5042698;28;20308;-64
2023/12/05 03:51:11;;;;;;;3.00;1.47;;;7.40;99.90;;;;;;5040209;28;20325;-64
2023/12/05 03:53:38;;;;;;;1.60;1.43;;;7.40;99.90;;;;;;5037549;28;20232;-62
2023/12/05 03:56:06;;;;;;;2.80;1.27;;;7.50;99.90;;;;;;5038464;28;20229;-64
2023/12/05 03:58:33;;;;;;;1.60;1.50;;;7.50;99.90;;;;;;5046204;28;20534;-64
2023/12/05 04:01:00;;;;;;;2.10;1.30;;;7.60;99.90;;;;;;5038873;28;20226;-63
2023/12/05 04:03:26;;;;;;;1.50;1.30;;;7.70;99.90;;;;;;5042496;28;20205;-63
2023/12/05 04:05:53;;;;;;;1.50;1.40;;;7.70;99.90;;;;;;5042967;28;20209;-64
2023/12/05 04:08:19;;;;;;;2.43;1.50;;;7.80;99.90;;;;;;5039555;28;22398;-65
2023/12/05 04:10:47;;;;;;;1.63;1.50;;;7.70;99.90;;;;;;5038850;28;20226;-65
2023/12/05 04:13:14;;;;;;;1.60;1.50;;;7.60;99.90;;;;;;5041151;28;20210;-63
2023/12/05 04:15:41;;;;;;;1.60;1.30;;;7.50;99.90;;;;;;5042669;28;20206;-64
2023/12/05 04:18:08;;;;;;;2.77;2.20;;;7.30;99.90;;;;;;5041081;28;20619;-66
2023/12/05 04:20:35;;;;;;;1.80;1.53;;;7.10;99.90;;;;;;5066760;22;20240;-60
2023/12/05 04:23:02;;;;;;;2.00;1.33;;;7.00;99.90;;;;;;5042110;28;20210;-59
2023/12/05 04:25:29;;;;;;;1.60;1.47;;;6.80;99.90;;;;;;5042650;28;20205;-61
2023/12/05 04:27:57;;;;;;;1.90;1.50;;;6.70;99.90;;;;;;5042332;28;20217;-61
2023/12/05 04:30:24;;;;;;;1.70;1.40;;;6.70;99.90;;;;;;5039031;28;20222;-60
2023/12/05 04:32:50;;;;;;;1.70;1.50;;;6.60;99.90;;;;;;5038776;28;20717;-59
2023/12/05 04:35:17;;;;;;;1.87;1.40;;;6.60;99.90;;;;;;5040988;28;20213;-59
2023/12/05 04:37:44;;;;;;;1.80;1.50;;;6.50;99.90;;;;;;5045402;28;20206;-60
2023/12/05 04:40:11;;;;;;;1.67;1.43;;;6.50;99.90;;;;;;5044284;28;20231;-59
2023/12/05 04:42:38;;;;;;;2.10;1.57;;;6.40;99.90;;;;;;5042299;28;20214;-59
2023/12/05 04:45:08;;;;;;;1.70;1.53;;;6.40;99.90;;;;;;5042638;28;20234;-59
2023/12/05 04:47:34;;;;;;;3.57;1.63;;;6.40;99.90;;;;;;5045205;28;20732;-58
2023/12/05 04:50:01;;;;;;;1.87;1.50;;;6.60;99.90;;;;;;5045179;28;20291;-58
2023/12/05 04:52:28;;;;;;;1.67;1.50;;;6.60;99.90;;;;;;5041732;28;20202;-59
2023/12/05 04:54:54;;;;;;;1.80;1.57;;;6.70;99.90;;;;;;5041953;28;20205;-59
2023/12/05 04:57:21;;;;;;;1.53;1.30;;;6.60;99.90;;;;;;5044389;28;20210;-59
2023/12/05 04:59:47;;;;;;;1.70;1.60;;;6.60;99.90;;;;;;5045416;28;20229;-60
2023/12/05 05:02:15;;;;;;;2.03;1.40;;;6.50;99.90;;;;;;5043203;28;20255;-59
2023/12/05 05:04:42;;;;;;;1.60;1.50;;;6.50;99.90;;;;;;5041653;28;20674;-58
2023/12/05 05:07:09;;;;;;;2.30;1.97;;;6.40;99.90;;;;;;5042722;28;20214;-58
2023/12/05 05:09:39;;;;;;;3.27;1.70;;;6.30;99.90;;;;;;5045088;28;20210;-59
2023/12/05 05:12:08;;;;;;;3.07;1.87;;;6.30;99.90;;;;;;5044294;28;20259;-59
2023/12/05 05:14:35;;;;;;;2.87;2.00;;;6.30;99.90;;;;;;5041367;28;20668;-58
2023/12/05 05:17:02;;;;;;;3.17;2.53;;;6.30;99.90;;;;;;5041337;28;20213;-58
2023/12/05 05:19:30;;;;;;;1.90;1.60;;;6.30;99.90;;;;;;5044869;28;20202;-59
2023/12/05 05:21:57;;;;;;;2.03;1.77;;;6.30;99.90;;;;;;5045036;28;20201;-59
2023/12/05 05:24:23;;;;;;;2.63;1.60;;;6.20;99.90;;;;;;5041685;28;20207;-59
2023/12/05 05:26:50;;;;;;;2.70;1.70;;;6.30;99.90;;;;;;5041103;28;20206;-59
2023/12/05 05:29:17;;;;;;;2.70;1.80;;;6.30;99.90;;;;;;5043220;28;20268;-59
2023/12/05 05:31:43;;;;;;;2.13;1.67;;;6.20;99.90;;;;;;5044260;28;20217;-59
2023/12/05 05:34:10;;;;;;;2.30;1.77;;;6.20;99.90;;;;;;5043220;28;20201;-59
2023/12/05 05:36:38;;;;;;;2.63;1.90;;;6.20;99.90;;;;;;5041296;28;20234;-60
2023/12/05 05:39:04;;;;;;;2.23;1.47;;;6.20;99.90;;;;;;5041130;28;20256;-59
2023/12/05 05:41:31;;;;;;;1.40;1.27;;;6.10;99.90;;;;;;5044179;28;20218;-59
2023/12/05 05:43:58;;;;;;;2.00;1.50;;;6.00;99.90;;;;;;5044108;28;20659;-59
2023/12/05 05:46:25;;;;;;;2.37;1.70;;;5.90;99.90;;;;;;5040847;28;20206;-60
2023/12/05 05:48:52;;;;;;;2.00;1.70;;;5.90;99.90;;;;;;5039937;28;20213;-59
2023/12/05 05:51:19;;;;;;;3.53;1.40;;;5.90;99.90;;;;;;5042732;28;20234;-59
2023/12/05 05:53:47;;;;;;;2.10;1.80;;;5.90;99.90;;;;;;5044296;28;20220;-59
2023/12/05 05:56:14;;;;;;;2.90;1.50;;;5.90;99.90;;;;;;5042760;28;20210;-58
2023/12/05 05:58:40;;;;;;;2.37;1.30;;;5.90;99.90;;;;;;5040567;28;20206;-59
2023/12/05 06:01:08;;;;;;;2.77;1.70;;;5.80;99.90;;;;;;5041350;28;20272;-59
2023/12/05 06:03:34;;;;;;;2.93;1.50;;;5.90;99.90;;;;;;5044109;28;20209;-59
2023/12/05 06:06:01;;;;;;;2.73;1.53;;;5.90;99.90;;;;;;5044281;28;20644;-59
2023/12/05 06:08:28;;;;;;;2.60;1.77;;;5.90;99.90;;;;;;5040227;28;20207;-58
2023/12/05 06:10:56;;;;;;;3.03;1.40;;;5.90;99.90;;;;;;5040126;28;20256;-60
2023/12/05 06:13:22;;;;;;;6.17;4.00;;;6.00;99.90;;;;;;5042899;28;20239;-59
2023/12/05 06:15:49;;;;;;;3.80;1.23;;;6.00;99.90;;;;;;5043539;28;20630;-60
2023/12/05 06:18:16;;;;;;;3.20;1.40;;;6.00;99.90;;;;;;5042033;28;20213;-60
2023/12/05 06:20:43;;;;;;;2.50;1.63;;;6.00;99.90;;;;;;5040009;28;20288;-60
2023/12/05 06:23:10;;;;;;;2.63;1.60;;;6.00;99.90;;;;;;5040976;28;20206;-60
2023/12/05 06:25:39;;;;;;;2.73;1.97;;;6.00;99.90;;;;;;5043697;28;20267;-59
2023/12/05 06:28:07;;;;;;;4.17;2.37;;;6.10;99.90;;;;;;5042955;28;20241;-60
2023/12/05 06:30:33;;;;;;;2.40;1.50;;;6.10;99.90;;;;;;5039890;28;20692;-60
2023/12/05 06:33:00;;;;;;;3.27;1.70;;;6.10;99.90;;;;;;5039984;28;20206;-60
2023/12/05 06:35:27;;;;;;;2.43;1.20;;;6.10;99.90;;;;;;5043055;28;20210;-59
2023/12/05 06:37:53;;;;;;;3.30;1.30;;;6.10;99.90;;;;;;5043253;28;20260;-60
2023/12/05 06:40:21;;;;;;;3.17;1.60;;;6.10;99.90;;;;;;5040961;28;20225;-60
2023/12/05 06:42:47;;;;;;;2.07;1.37;;;6.10;99.90;;;;;;5039706;28;20684;-60
2023/12/05 06:45:15;;;;;;;2.77;1.50;;;6.00;99.90;;;;;;5041075;28;20675;-60
2023/12/05 06:47:42;;;;;;;4.27;1.80;;;6.10;99.90;;;;;;5043043;28;20288;-60
2023/12/05 06:50:11;;;;;;;4.37;2.40;;;6.10;99.90;;;;;;5042200;28;20236;-59
2023/12/05 06:52:38;;;;;;;3.97;1.73;;;6.10;99.90;;;;;;5039696;28;20233;-59
2023/12/05 06:55:06;;;;;;;3.17;1.50;;;6.10;99.90;;;;;;5039502;28;20702;-59
2023/12/05 06:57:33;;;;;;;3.03;1.40;;;6.00;99.90;;;;;;5042739;28;20209;-60
2023/12/05 06:59:59;;;;;;;2.43;1.30;;;6.20;99.90;;;;;;5042145;28;20229;-60
2023/12/05 07:02:27;;;;;;;2.40;1.10;;;6.20;99.90;;;;;;5039873;28;20198;-60
2023/12/05 07:04:57;;;;;;;2.20;1.03;;;6.20;99.90;;;;;;5039524;28;20233;-60
2023/12/05 07:07:24;;;;;;;2.20;1.20;;;6.20;99.90;;;;;;5042060;28;20214;-61
2023/12/05 07:09:51;;;;;;;1.60;1.40;;;6.30;99.90;;;;;;5043034;28;20232;-61
2023/12/05 07:12:19;;;;;;;1.97;1.00;;;6.40;99.90;;;;;;5041489;28;20225;-60
2023/12/05 07:14:45;;;;;;;2.23;1.50;;;6.40;99.90;;;;;;5045432;28;20228;-60
2023/12/05 07:17:12;;;;;;;6.90;1.70;;;6.40;99.90;;;;;;5041741;28;20206;-61
2023/12/05 07:19:40;;;;;;;3.77;1.33;;;6.40;99.90;;;;;;5039435;28;20260;-61
2023/12/05 07:22:07;;;;;;;6.20;2.10;;;6.40;99.90;;;;;;5039668;28;20213;-61
2023/12/05 07:24:34;;;;;;;46.93;6.47;;;6.40;99.90;;;;;;5042818;28;20209;-59
2023/12/05 07:27:00;;;;;;;18.23;3.13;;;6.40;99.90;;;;;;5042812;28;20205;-60
2023/12/05 07:29:27;;;;;;;6.93;2.10;;;6.40;99.90;;;;;;5039798;28;20206;-60
2023/12/05 07:31:54;;;;;;;12.77;2.20;;;6.50;99.90;;;;;;5039408;28;20226;-60
2023/12/05 07:34:21;;;;;;;2.53;1.40;;;6.60;99.90;;;;;;5041398;28;20211;-59
2023/12/05 07:36:49;;;;;;;2.30;1.30;;;6.70;99.90;;;;;;5042511;28;20239;-59
2023/12/05 07:39:16;;;;;;;2.83;1.50;;;6.80;99.90;;;;;;5041050;28;20206;-60
2023/12/05 07:41:42;;;;;;;4.23;1.20;;;6.90;99.90;;;;;;5038880;28;20708;-61
2023/12/05 07:44:10;;;;;;;2.27;1.40;;;7.00;99.90;;;;;;5039537;28;20238;-61
2023/12/05 07:46:43;;;;;;;3.67;1.50;;;7.00;99.90;;;;;;5042620;28;20206;-60
2023/12/05 07:49:10;;;;;;;4.73;1.20;;;7.10;99.90;;;;;;5041473;28;20720;-61
2023/12/05 07:51:37;;;;;;;1.20;1.10;;;7.10;99.90;;;;;;5038891;28;20711;-60
2023/12/05 07:54:06;;;;;;;3.90;1.10;;;7.30;99.90;;;;;;5039389;28;20802;-61
2023/12/05 07:56:32;;;;;;;2.37;1.20;;;7.50;99.90;;;;;;5043222;28;20622;-61
2023/12/05 07:58:59;;;;;;;1.63;1.10;;;7.70;99.90;;;;;;5042644;28;20292;-60
2023/12/05 08:01:26;;;;;;;2.80;1.57;;;7.80;99.90;;;;;;5039853;28;20225;-60
2023/12/05 08:03:53;;;;;;;1.90;1.03;;;8.00;99.90;;;;;;5039235;28;20206;-60
2023/12/05 08:06:19;;;;;;;2.40;1.60;;;8.10;99.90;;;;;;5040554;28;20210;-61
2023/12/05 08:08:46;;;;;;;2.13;1.20;;;8.30;99.90;;;;;;5042129;28;20792;-61
2023/12/05 08:11:14;;;;;;;3.93;1.43;;;8.50;99.90;;;;;;5042382;28;20601;-60
2023/12/05 08:13:41;;;;;;;1.83;1.20;;;8.50;99.90;;;;;;5042763;28;20585;-60
2023/12/05 08:16:08;;;;;;;3.33;1.70;;;8.70;99.90;;;;;;5042391;28;20316;-60
2023/12/05 08:18:35;;;;;;;2.23;1.37;;;8.80;99.90;;;;;;5045904;28;20220;-60
2023/12/05 08:21:02;;;;;;;3.57;1.20;;;8.90;99.90;;;;;;5045754;28;20280;-60
2023/12/05 08:23:29;;;;;;;3.17;1.10;;;9.00;99.90;;;;;;5042852;28;20704;-59
2023/12/05 08:25:55;;;;;;;2.73;1.10;;;9.30;99.90;;;;;;5042593;28;20209;-60
2023/12/05 08:28:23;;;;;;;4.10;1.27;;;9.50;99.90;;;;;;5044444;28;20206;-61
2023/12/05 08:30:50;;;;;;;1.57;1.00;;;9.70;99.90;;;;;;5045657;28;20328;-61
2023/12/05 08:33:17;;;;;;;2.53;1.27;;;9.70;99.90;;;;;;5044401;28;20214;-60
2023/12/05 08:35:44;;;;;;;3.40;1.30;;;9.70;99.90;;;;;;5042418;28;20217;-60
2023/12/05 08:38:10;;;;;;;2.30;1.10;;;9.50;99.90;;;;;;5042508;28;20218;-61
2023/12/05 08:40:37;;;;;;;3.07;1.00;;;9.50;99.90;;;;;;5045495;28;20229;-60
2023/12/05 08:43:04;;;;;;;1.87;1.27;;;9.50;99.90;;;;;;5045447;28;20201;-60
2023/12/05 08:45:33;;;;;;;1.73;1.03;;;9.40;99.90;;;;;;5042071;28;20734;-59
2023/12/05 08:47:59;;;;;;;1.43;1.10;;;9.50;99.90;;;;;;5042188;28;20233;-60
2023/12/05 08:50:26;;;;;;;2.93;1.27;;;9.60;99.90;;;;;;5044428;28;20256;-60
2023/12/05 08:52:53;;;;;;;2.23;1.57;;;9.80;99.90;;;;;;5045228;28;20646;-59
2023/12/05 08:55:20;;;;;;;2.30;1.17;;;9.90;99.90;;;;;;5043633;28;20201;-60
2023/12/05 08:57:47;;;;;;;5.30;1.20;;;10.20;99.90;;;;;;5041664;28;20679;-60
2023/12/05 09:00:14;;;;;;;1.87;1.20;;;10.40;99.90;;;;;;5042420;28;20292;-60
2023/12/05 09:02:42;;;;;;;1.60;1.00;;;10.60;99.90;;;;;;5045342;28;20255;-60
2023/12/05 09:05:09;;;;;;;2.67;1.40;;;10.80;99.90;;;;;;5045082;28;20214;-62
2023/12/05 09:07:36;;;;;;;2.30;1.30;;;10.70;99.90;;;;;;5041490;28;20714;-60
2023/12/05 09:10:02;;;;;;;6.63;5.67;;;10.70;99.90;;;;;;5041866;28;20288;-61
2023/12/05 09:12:29;;;;;;;5.63;3.47;;;10.60;99.90;;;;;;5044214;28;20230;-61
2023/12/05 09:14:56;;;;;;;1.40;1.10;;;10.70;99.90;;;;;;5044965;28;20213;-61
2023/12/05 09:17:22;;;;;;;3.03;2.07;;;10.80;99.90;;;;;;5042908;28;20216;-61
2023/12/05 09:19:51;;;;;;;2.37;1.40;;;10.80;99.90;;;;;;5041397;28;20715;-61
2023/12/05 09:22:19;;;;;;;3.87;1.47;;;10.70;99.90;;;;;;5041948;28;20203;-61
2023/12/05 09:24:45;;;;;;;2.57;1.40;;;10.50;99.90;;;;;;5044944;28;20205;-61
2023/12/05 09:27:12;;;;;;;2.67;1.37;;;10.40;99.90;;;;;;5044174;28;20585;-61
2023/12/05 09:29:39;;;;;;;2.53;1.17;;;10.30;99.90;;;;;;5041328;28;20294;-61
2023/12/05 09:32:06;;;;;;;2.77;1.47;;;10.20;99.90;;;;;;5041151;28;20750;-62
2023/12/05 09:34:32;;;;;;;2.80;1.40;;;10.10;99.90;;;;;;5044512;28;20202;-61
2023/12/05 09:37:01;;;;;;;4.53;1.30;;;10.00;99.90;;;;;;5044301;28;20584;-60
2023/12/05 09:39:29;;;;;;;3.00;1.10;;;9.90;99.90;;;;;;5042034;28;20218;-59
2023/12/05 09:41:57;;;;;;;2.80;1.20;;;9.80;99.90;;;;;;5041119;28;20297;-59
2023/12/05 09:44:26;;;;;;;1.90;1.00;;;9.60;99.90;;;;;;5043030;28;20209;-62
2023/12/05 09:46:58;;;;;;;2.00;1.13;;;9.70;99.90;;;;;;5044583;28;20364;-60
2023/12/05 09:49:27;;;;;;;2.90;1.40;;;9.60;99.90;;;;;;5042635;28;20209;-60
2023/12/05 09:51:54;;;;;;;2.97;1.40;;;9.50;99.90;;;;;;5040719;28;20226;-61
2023/12/05 09:54:23;;;;;;;3.97;2.80;;;9.30;99.90;;;;;;5042234;28;20206;-61
2023/12/05 09:56:51;;;;;;;2.40;1.70;;;9.30;99.90;;;;;;5044004;28;20228;-61
2023/12/05 09:59:20;;;;;;;15.20;7.20;;;9.20;99.90;;;;;;5043345;28;20403;-61
2023/12/05 10:01:48;;;;;;;3.63;1.70;;;9.10;99.90;;;;;;5040837;28;20222;-59
2023/12/05 10:04:18;;;;;;;1.83;1.30;;;9.00;99.90;;;;;;5041258;28;20215;-60
2023/12/05 10:06:48;;;;;;;3.47;1.70;;;8.90;99.90;;;;;;5044405;28;20288;-59
2023/12/05 10:09:16;;;;;;;1.73;1.17;;;8.90;99.90;;;;;;5043308;28;20209;-59
2023/12/05 10:11:45;;;;;;;1.80;1.40;;;8.80;99.90;;;;;;5040574;28;20222;-59
2023/12/05 10:14:12;;;;;;;2.67;1.47;;;8.80;99.90;;;;;;5040823;28;20260;-60
2023/12/05 10:16:39;;;;;;;1.67;1.50;;;8.90;99.90;;;;;;5043806;28;20202;-59
2023/12/05 10:19:09;;;;;;;2.90;1.10;;;8.90;99.90;;;;;;5043639;28;20257;-60
2023/12/05 10:21:36;;;;;;;2.23;1.20;;;9.00;99.90;;;;;;5039963;28;20233;-60
2023/12/05 10:24:03;;;;;;;2.53;1.33;;;9.10;99.90;;;;;;5040406;28;20218;-60
2023/12/05 10:26:30;;;;;;;4.70;2.50;;;9.20;99.90;;;;;;5042956;28;20206;-60
2023/12/05 10:28:58;;;;;;;3.23;1.57;;;9.30;99.90;;;;;;5043499;28;20639;-60
2023/12/05 10:31:25;;;;;;;1.43;1.10;;;9.30;99.90;;;;;;5041506;28;20236;-60
2023/12/05 10:34:03;;;;;;;3.00;1.30;;;9.40;99.90;;;;;;5040031;28;20210;-60
2023/12/05 10:36:30;;;;;;;1.87;1.40;;;9.40;99.90;;;;;;5042835;28;20206;-60
2023/12/05 10:38:57;;;;;;;2.53;1.20;;;9.50;99.90;;;;;;5043624;28;20210;-60
2023/12/05 10:41:28;;;;;;;2.40;1.00;;;9.60;99.90;;;;;;5041864;28;20221;-60
2023/12/05 10:43:55;;;;;;;3.67;1.33;;;9.70;99.90;;;;;;5040403;28;20268;-62
2023/12/05 10:46:25;;;;;;;3.27;1.40;;;9.90;99.90;;;;;;5041253;28;20210;-60
2023/12/05 10:48:52;;;;;;;6.47;1.83;;;10.00;99.90;;;;;;5043142;28;20233;-62
2023/12/05 10:51:19;;;;;;;2.33;1.50;;;10.10;99.90;;;;;;5042153;28;20238;-60
2023/12/05 10:53:46;;;;;;;3.27;1.53;;;10.10;99.90;;;;;;5039905;28;20222;-60
2023/12/05 10:56:14;;;;;;;2.37;1.20;;;10.00;99.90;;;;;;5039989;28;20202;-62
2023/12/05 10:58:42;;;;;;;2.00;0.93;;;10.00;99.90;;;;;;5043092;28;20212;-62
2023/12/05 11:01:11;;;;;;;2.20;1.07;;;10.10;99.90;;;;;;5043126;28;20722;-62
2023/12/05 11:03:39;;;;;;;3.23;1.40;;;10.10;99.90;;;;;;5043385;28;20232;-60
2023/12/05 11:06:07;;;;;;;1.40;1.20;;;10.10;99.90;;;;;;5043272;28;20218;-59
2023/12/05 11:08:34;;;;;;;2.20;1.50;;;10.20;99.90;;;;;;5039903;28;20213;-60
2023/12/05 11:11:03;;;;;;;2.03;1.10;;;10.30;99.90;;;;;;5039594;28;20230;-60
2023/12/05 11:13:32;;;;;;;3.83;1.30;;;10.40;99.90;;;;;;5041763;28;20328;-60
2023/12/05 11:16:03;;;;;;;1.47;1.07;;;10.50;99.90;;;;;;5043180;28;20233;-60
2023/12/05 11:18:40;;;;;;;2.57;1.30;;;10.60;99.90;;;;;;5040491;28;20209;-60
2023/12/05 11:21:22;;;;;;;2.40;1.20;;;10.70;99.90;;;;;;5039479;28;20292;-60
2023/12/05 11:24:12;;;;;;;2.13;1.10;;;10.70;99.90;;;;;;5044541;28;20201;-61
2023/12/05 11:26:58;;;;;;;1.30;1.00;;;10.60;99.90;;;;;;5043352;28;20209;-61
2023/12/05 11:29:51;;;;;;;1.23;1.00;;;10.60;99.90;;;;;;5041075;28;20679;-59
2023/12/05 11:32:31;;;;;;;3.33;1.30;;;10.70;99.90;;;;;;5039703;28;20218;-62
2023/12/05 11:35:10;;;;;;;3.70;2.13;;;10.80;99.90;;;;;;5043068;28;20209;-61
2023/12/05 11:37:50;;;;;;;1.47;0.93;;;10.90;99.90;;;;;;5043849;28;20205;-63
2023/12/05 11:40:17;;;;;;;1.30;0.87;;;10.90;99.90;;;;;;5042234;28;20232;-63
2023/12/05 11:43:05;;;;;;;1.53;0.97;;;10.90;99.90;;;;;;5046498;28;20195;-67
2023/12/05 11:45:31;;;;;;;2.60;1.30;;;10.90;99.90;;;;;;5049376;28;20233;-67
2023/12/05 11:47:59;;;;;;;2.53;1.10;;;11.10;99.90;;;;;;5053026;28;20670;-67
2023/12/05 11:50:27;;;;;;;1.83;1.13;;;11.30;99.90;;;;;;5051454;28;20232;-67
2023/12/05 11:52:55;;;;;;;2.70;0.93;;;11.40;99.90;;;;;;5043459;28;20272;-63
2023/12/05 11:55:23;;;;;;;4.00;3.27;;;11.30;99.90;;;;;;5043842;28;20253;-67
2023/12/05 11:57:49;;;;;;;3.73;1.13;;;11.20;99.90;;;;;;5046793;28;20214;-65
2023/12/05 12:00:16;;;;;;;3.50;1.10;;;11.10;99.90;;;;;;5045164;28;20236;-61
2023/12/05 12:02:44;;;;;;;1.70;0.90;;;11.00;99.90;;;;;;5048578;28;20201;-62
2023/12/05 12:05:12;;;;;;;1.33;0.90;;;11.00;99.90;;;;;;5054435;28;20624;-63
2023/12/05 12:07:48;;;;;;;1.73;0.90;;;11.10;99.90;;;;;;5053679;28;20237;-66
2023/12/05 12:10:17;;;;;;;2.07;0.73;;;11.20;99.90;;;;;;5070988;28;20231;-59
2023/12/05 12:12:44;;;;;;;1.57;0.60;;;11.30;99.90;;;;;;5062261;28;20304;-60
2023/12/05 12:15:11;;;;;;;4.53;0.90;;;11.40;99.90;;;;;;5046632;28;20240;-59
2023/12/05 12:17:42;;;;;;;4.87;3.70;;;11.50;99.90;;;;;;5043100;28;20202;-59
2023/12/05 12:20:12;;;;;;;1.23;0.90;;;11.50;99.90;;;;;;5042755;28;20271;-60
2023/12/05 12:22:38;;;;;;;2.37;0.83;;;11.30;99.90;;;;;;5045996;28;20204;-60
2023/12/05 12:25:11;;;;;;;4.07;0.90;;;11.30;99.90;;;;;;5046052;28;20674;-60
2023/12/05 12:27:39;;;;;;;3.70;1.40;;;11.20;99.90;;;;;;5042973;28;20202;-60
2023/12/05 12:30:08;;;;;;;2.53;1.20;;;11.40;99.90;;;;;;5042963;28;20226;-60
2023/12/05 12:32:36;;;;;;;3.30;2.10;;;11.60;99.90;;;;;;5045244;28;20264;-60
2023/12/05 12:35:05;;;;;;;1.93;1.07;;;11.80;99.90;;;;;;5046422;28;20645;-60
2023/12/05 12:37:32;;;;;;;1.63;0.90;;;11.90;99.90;;;;;;5043887;28;20202;-60
2023/12/05 12:40:00;;;;;;;2.93;1.20;;;11.80;99.90;;;;;;5043036;28;20226;-60
2023/12/05 12:42:28;;;;;;;1.30;0.80;;;11.80;99.90;;;;;;5044206;28;20199;-62
2023/12/05 12:44:56;;;;;;;1.13;0.90;;;11.60;99.90;;;;;;5045987;28;20205;-60
2023/12/05 12:47:21;;;;;;;2.27;1.00;;;11.50;99.90;;;;;;5043974;28;20212;-60
2023/12/05 12:49:48;;;;;;;3.10;1.10;;;11.20;99.90;;;;;;5042283;28;20703;-60
2023/12/05 12:52:15;;;;;;;2.87;1.03;;;11.10;99.90;;;;;;5042080;28;20240;-60
2023/12/05 12:54:43;;;;;;;1.70;1.00;;;11.10;99.90;;;;;;5046103;28;20202;-60
2023/12/05 12:57:10;;;;;;;2.50;0.90;;;11.20;99.90;;;;;;5045375;28;20220;-58
2023/12/05 12:59:41;;;;;;;1.40;0.97;;;11.30;99.90;;;;;;5042290;28;20202;-60